Página principal
METAR-TAF:

METAR-TAF

Aeroportos :

Aeroporto Internacional de Dallas/Fort Worth

Dallas / Fort Worth, Texas, Estados Unidos

latitude: 32-53-49N, longitude: 097-01-19W, altura: 183 m

Observação actual do tempo

O boletim foi feito há 24 minutos, às 23:53 UTC
Vento 13 kt de nor-noroeste
Temperatura 3°C
Humidade 44%
Pressão 1033 hPa
Visibilidade: 16.1 km
Nuvens dispersasa uma altura de 14000 ft
Nuvens dispersasa uma altura de 30000 ft

METAR: KDFW 132353Z 34013KT 10SM SCT140 SCT300 03/M08 A3049 RMK AO2 SLP326 T00331083 10050 20006 55000 $

Hora: 18:17 (00:17 UTC)

Previsão

O boletim foi feito há 41 minutos, às 23:36 UTC
Previsão válida de 14 às 00 UTC a 15 às 06 UTC
Vento 8 kt de nor-noroeste
Visibilidade: 10 km
Poucas nuvensa uma altura de 12000 ft

TAF: KDFW 132336Z 1400/1506 33008KT P6SM FEW120

Observações e previsões do tempo de mais de 4000 aeroportos (mensagens METAR e TAF).

As estações disponíveis são os pontos amarelos e vermelhos sobre o mapa.

Mova o rato sobre o mapa para ver o nome da estação.

Depois clique no ponto para visualizar as observações e previsões meteorológicas.

Para alterar o mapa : clique nos botões verdes com uma cruz preta para aumentar o zoom; no botão verde com uma pitada de zoom; ou nas setas verdes para mapas adjacentes.


METAR-TAF: